sensor_id;sensor_type;location;lat;lon;timestamp;pressure;altitude;pressure_sealevel;temperature;humidity
73692;BME280;61996;49.910;35.562;2023-01-19T00:01:56;99133.41;;;21.36;37.67
73692;BME280;61996;49.910;35.562;2023-01-19T00:04:59;99146.28;;;21.32;37.92
73692;BME280;61996;49.910;35.562;2023-01-19T00:08:04;99142.94;;;21.30;37.79
73692;BME280;61996;49.910;35.562;2023-01-19T00:11:15;99141.56;;;21.26;38.07
73692;BME280;61996;49.910;35.562;2023-01-19T00:14:20;99138.22;;;21.24;38.13
73692;BME280;61996;49.910;35.562;2023-01-19T00:17:23;99144.56;;;21.15;37.99
73692;BME280;61996;49.910;35.562;2023-01-19T00:20:26;99154.09;;;21.18;37.99
73692;BME280;61996;49.910;35.562;2023-01-19T00:23:30;99155.59;;;21.20;38.10
73692;BME280;61996;49.910;35.562;2023-01-19T00:26:33;99168.47;;;21.17;38.20
73692;BME280;61996;49.910;35.562;2023-01-19T00:29:42;99170.31;;;21.16;38.49
73692;BME280;61996;49.910;35.562;2023-01-19T00:32:45;99166.09;;;21.05;38.63
73692;BME280;61996;49.910;35.562;2023-01-19T00:35:49;99180.13;;;20.99;38.68
73692;BME280;61996;49.910;35.562;2023-01-19T00:38:53;99182.28;;;20.96;38.81
73692;BME280;61996;49.910;35.562;2023-01-19T00:41:55;99171.06;;;20.92;38.89
73692;BME280;61996;49.910;35.562;2023-01-19T00:45:18;99188.63;;;20.87;38.79
73692;BME280;61996;49.910;35.562;2023-01-19T00:48:21;99191.59;;;20.84;39.07
73692;BME280;61996;49.910;35.562;2023-01-19T00:51:24;99190.28;;;20.79;38.96
73692;BME280;61996;49.910;35.562;2023-01-19T00:54:27;99196.09;;;20.75;39.06
73692;BME280;61996;49.910;35.562;2023-01-19T00:57:29;99194.59;;;20.72;38.94
73692;BME280;61996;49.910;35.562;2023-01-19T01:00:34;99194.91;;;20.69;38.91
73692;BME280;61996;49.910;35.562;2023-01-19T01:03:36;99178.50;;;20.64;38.85
73692;BME280;61996;49.910;35.562;2023-01-19T01:06:39;99182.19;;;20.63;39.04
73692;BME280;61996;49.910;35.562;2023-01-19T01:09:42;99179.16;;;20.58;39.27
73692;BME280;61996;49.910;35.562;2023-01-19T01:12:45;99176.81;;;20.55;39.30
73692;BME280;61996;49.910;35.562;2023-01-19T01:15:59;99168.31;;;20.51;39.09
73692;BME280;61996;49.910;35.562;2023-01-19T01:19:02;99162.44;;;20.48;39.40
73692;BME280;61996;49.910;35.562;2023-01-19T01:22:05;99172.28;;;20.47;39.20
73692;BME280;61996;49.910;35.562;2023-01-19T01:25:08;99171.72;;;20.44;39.20
73692;BME280;61996;49.910;35.562;2023-01-19T01:28:11;99167.69;;;20.40;39.34
73692;BME280;61996;49.910;35.562;2023-01-19T01:31:15;99178.56;;;20.38;39.22
73692;BME280;61996;49.910;35.562;2023-01-19T01:34:18;99169.00;;;20.36;39.30
73692;BME280;61996;49.910;35.562;2023-01-19T01:37:21;99176.00;;;20.37;39.36
73692;BME280;61996;49.910;35.562;2023-01-19T01:40:24;99178.03;;;20.35;39.14
73692;BME280;61996;49.910;35.562;2023-01-19T01:43:39;99173.84;;;20.32;39.14
73692;BME280;61996;49.910;35.562;2023-01-19T01:46:44;99164.84;;;20.33;39.22
73692;BME280;61996;49.910;35.562;2023-01-19T01:49:47;99170.34;;;20.32;39.29
73692;BME280;61996;49.910;35.562;2023-01-19T01:52:50;99175.31;;;20.26;39.19
73692;BME280;61996;49.910;35.562;2023-01-19T01:56:08;99174.16;;;20.29;39.06
73692;BME280;61996;49.910;35.562;2023-01-19T01:59:14;99177.81;;;20.28;39.08
73692;BME280;61996;49.910;35.562;2023-01-19T02:02:27;99192.16;;;20.27;39.09
73692;BME280;61996;49.910;35.562;2023-01-19T02:05:49;99199.50;;;20.25;39.02
73692;BME280;61996;49.910;35.562;2023-01-19T02:08:52;99198.66;;;20.24;39.18
73692;BME280;61996;49.910;35.562;2023-01-19T02:12:13;99207.81;;;20.22;39.19
73692;BME280;61996;49.910;35.562;2023-01-19T02:15:34;99210.81;;;20.19;39.32
73692;BME280;61996;49.910;35.562;2023-01-19T02:18:38;99218.81;;;20.19;39.18
73692;BME280;61996;49.910;35.562;2023-01-19T02:21:43;99203.28;;;20.14;39.08
73692;BME280;61996;49.910;35.562;2023-01-19T02:24:49;99198.25;;;20.11;39.18
73692;BME280;61996;49.910;35.562;2023-01-19T02:27:53;99194.59;;;20.12;39.31
73692;BME280;61996;49.910;35.562;2023-01-19T02:30:56;99194.88;;;20.09;39.26
73692;BME280;61996;49.910;35.562;2023-01-19T02:33:59;99197.72;;;20.08;39.26
73692;BME280;61996;49.910;35.562;2023-01-19T02:37:03;99196.88;;;20.07;39.32
73692;BME280;61996;49.910;35.562;2023-01-19T02:40:12;99197.03;;;20.06;39.22
73692;BME280;61996;49.910;35.562;2023-01-19T02:43:15;99199.88;;;20.04;39.42
73692;BME280;61996;49.910;35.562;2023-01-19T02:46:19;99200.88;;;20.03;39.46
73692;BME280;61996;49.910;35.562;2023-01-19T02:49:22;99199.66;;;19.97;39.49
73692;BME280;61996;49.910;35.562;2023-01-19T02:52:25;99193.63;;;19.95;39.56
73692;BME280;61996;49.910;35.562;2023-01-19T02:55:30;99192.78;;;19.95;39.58
73692;BME280;61996;49.910;35.562;2023-01-19T02:58:35;99195.78;;;19.92;39.58
73692;BME280;61996;49.910;35.562;2023-01-19T03:01:51;99205.78;;;19.90;39.63
73692;BME280;61996;49.910;35.562;2023-01-19T03:04:58;99203.00;;;19.99;39.43
73692;BME280;61996;49.910;35.562;2023-01-19T03:08:07;99197.22;;;20.04;39.34
73692;BME280;61996;49.910;35.562;2023-01-19T03:11:17;99204.94;;;20.15;39.20
73692;BME280;61996;49.910;35.562;2023-01-19T03:14:21;99205.69;;;20.25;38.91
73692;BME280;61996;49.910;35.562;2023-01-19T03:17:26;99201.88;;;20.36;38.63
73692;BME280;61996;49.910;35.562;2023-01-19T03:20:31;99211.78;;;20.44;38.50
73692;BME280;61996;49.910;35.562;2023-01-19T03:23:35;99208.84;;;20.47;38.39
73692;BME280;61996;49.910;35.562;2023-01-19T03:26:41;99226.56;;;20.56;38.39
73692;BME280;61996;49.910;35.562;2023-01-19T03:29:46;99225.25;;;20.60;38.25
73692;BME280;61996;49.910;35.562;2023-01-19T03:32:53;99226.94;;;20.61;38.18
73692;BME280;61996;49.910;35.562;2023-01-19T03:35:57;99235.97;;;20.68;38.01
73692;BME280;61996;49.910;35.562;2023-01-19T03:39:04;99230.81;;;20.67;38.07
73692;BME280;61996;49.910;35.562;2023-01-19T03:42:10;99238.66;;;20.68;38.23
73692;BME280;61996;49.910;35.562;2023-01-19T03:45:14;99242.19;;;20.77;37.87
73692;BME280;61996;49.910;35.562;2023-01-19T03:48:18;99241.34;;;20.76;38.03
73692;BME280;61996;49.910;35.562;2023-01-19T03:51:21;99246.69;;;20.76;38.06
73692;BME280;61996;49.910;35.562;2023-01-19T03:54:24;99239.34;;;20.78;37.93
73692;BME280;61996;49.910;35.562;2023-01-19T03:57:29;99244.38;;;20.82;37.87
73692;BME280;61996;49.910;35.562;2023-01-19T04:00:32;99246.06;;;20.83;37.84
73692;BME280;61996;49.910;35.562;2023-01-19T04:03:37;99256.13;;;20.89;37.81
73692;BME280;61996;49.910;35.562;2023-01-19T04:06:40;99249.41;;;20.85;38.05
73692;BME280;61996;49.910;35.562;2023-01-19T04:09:42;99259.44;;;20.91;37.84
73692;BME280;61996;49.910;35.562;2023-01-19T04:12:47;99246.25;;;20.89;37.84
73692;BME280;61996;49.910;35.562;2023-01-19T04:15:49;99249.44;;;20.93;37.80
73692;BME280;61996;49.910;35.562;2023-01-19T04:18:52;99248.59;;;20.92;37.79
73692;BME280;61996;49.910;35.562;2023-01-19T04:21:56;99250.97;;;20.95;37.75
73692;BME280;61996;49.910;35.562;2023-01-19T04:24:58;99248.25;;;20.87;38.04
73692;BME280;61996;49.910;35.562;2023-01-19T04:28:03;99250.78;;;20.97;37.69
73692;BME280;61996;49.910;35.562;2023-01-19T04:31:06;99252.16;;;21.01;37.67
73692;BME280;61996;49.910;35.562;2023-01-19T04:34:09;99251.78;;;20.96;37.79
73692;BME280;61996;49.910;35.562;2023-01-19T04:37:12;99247.13;;;20.98;37.82
73692;BME280;61996;49.910;35.562;2023-01-19T04:40:14;99240.47;;;21.02;37.89
73692;BME280;61996;49.910;35.562;2023-01-19T04:43:19;99246.63;;;21.02;37.77
73692;BME280;61996;49.910;35.562;2023-01-19T04:46:22;99245.97;;;21.00;37.68
73692;BME280;61996;49.910;35.562;2023-01-19T04:49:25;99242.50;;;21.08;37.61
73692;BME280;61996;49.910;35.562;2023-01-19T04:52:30;99258.84;;;21.05;37.70
73692;BME280;61996;49.910;35.562;2023-01-19T04:55:35;99260.69;;;21.13;37.57
73692;BME280;61996;49.910;35.562;2023-01-19T04:58:40;99271.25;;;21.14;37.49
73692;BME280;61996;49.910;35.562;2023-01-19T05:01:43;99263.88;;;21.08;37.81
73692;BME280;61996;49.910;35.562;2023-01-19T05:04:46;99267.03;;;21.12;37.55
73692;BME280;61996;49.910;35.562;2023-01-19T05:07:48;99277.44;;;21.15;37.62
73692;BME280;61996;49.910;35.562;2023-01-19T05:10:51;99275.06;;;21.12;37.69
73692;BME280;61996;49.910;35.562;2023-01-19T05:13:55;99266.03;;;21.13;37.48
73692;BME280;61996;49.910;35.562;2023-01-19T05:16:58;99265.41;;;21.19;37.45
73692;BME280;61996;49.910;35.562;2023-01-19T05:20:04;99271.38;;;21.13;37.80
73692;BME280;61996;49.910;35.562;2023-01-19T05:23:07;99274.09;;;21.21;37.48
73692;BME280;61996;49.910;35.562;2023-01-19T05:26:10;99280.31;;;21.21;37.43
73692;BME280;61996;49.910;35.562;2023-01-19T05:29:14;99295.97;;;21.16;37.61
73692;BME280;61996;49.910;35.562;2023-01-19T05:32:17;99298.50;;;21.18;37.60
73692;BME280;61996;49.910;35.562;2023-01-19T05:35:20;99303.38;;;21.22;37.52
73692;BME280;61996;49.910;35.562;2023-01-19T05:38:36;99302.34;;;21.15;37.84
73692;BME280;61996;49.910;35.562;2023-01-19T05:41:39;99308.19;;;21.19;37.67
73692;BME280;61996;49.910;35.562;2023-01-19T05:44:43;99316.03;;;21.20;37.70
73692;BME280;61996;49.910;35.562;2023-01-19T05:47:46;99321.72;;;21.17;37.77
73692;BME280;61996;49.910;35.562;2023-01-19T05:50:49;99316.41;;;21.25;37.37
73692;BME280;61996;49.910;35.562;2023-01-19T05:53:52;99311.88;;;21.26;37.46
73692;BME280;61996;49.910;35.562;2023-01-19T05:56:55;99315.56;;;21.25;37.61
73692;BME280;61996;49.910;35.562;2023-01-19T06:00:00;99325.44;;;21.24;37.55
73692;BME280;61996;49.910;35.562;2023-01-19T06:03:02;99329.31;;;21.30;37.40
73692;BME280;61996;49.910;35.562;2023-01-19T06:06:07;99331.09;;;21.21;37.65
73692;BME280;61996;49.910;35.562;2023-01-19T06:09:09;99318.78;;;21.28;37.52
73692;BME280;61996;49.910;35.562;2023-01-19T06:12:12;99315.28;;;21.28;37.60
73692;BME280;61996;49.910;35.562;2023-01-19T06:15:17;99322.41;;;21.27;37.48
73692;BME280;61996;49.910;35.562;2023-01-19T06:18:19;99314.59;;;21.34;37.45
73692;BME280;61996;49.910;35.562;2023-01-19T06:21:22;99320.13;;;21.32;37.51
73692;BME280;61996;49.910;35.562;2023-01-19T06:24:25;99319.47;;;21.30;37.57
73692;BME280;61996;49.910;35.562;2023-01-19T06:27:28;99316.44;;;21.33;37.42
73692;BME280;61996;49.910;35.562;2023-01-19T06:30:32;99324.47;;;21.33;37.49
73692;BME280;61996;49.910;35.562;2023-01-19T06:33:35;99330.53;;;21.36;37.48
73692;BME280;61996;49.910;35.562;2023-01-19T06:36:38;99323.34;;;21.36;37.54
73692;BME280;61996;49.910;35.562;2023-01-19T06:39:41;99320.50;;;21.38;37.32
73692;BME280;61996;49.910;35.562;2023-01-19T06:42:45;99318.13;;;21.34;37.47
73692;BME280;61996;49.910;35.562;2023-01-19T06:45:51;99317.00;;;21.45;37.28
73692;BME280;61996;49.910;35.562;2023-01-19T06:48:54;99308.94;;;21.37;37.55
73692;BME280;61996;49.910;35.562;2023-01-19T06:51:57;99316.16;;;21.37;37.63
73692;BME280;61996;49.910;35.562;2023-01-19T06:55:03;99316.97;;;21.29;37.69
73692;BME280;61996;49.910;35.562;2023-01-19T06:58:07;99317.75;;;21.21;37.69
73692;BME280;61996;49.910;35.562;2023-01-19T07:01:12;99327.56;;;21.21;37.79
73692;BME280;61996;49.910;35.562;2023-01-19T07:04:15;99332.09;;;21.20;37.85
73692;BME280;61996;49.910;35.562;2023-01-19T07:07:18;99336.59;;;21.20;37.70
73692;BME280;61996;49.910;35.562;2023-01-19T07:10:21;99336.94;;;21.17;37.85
73692;BME280;61996;49.910;35.562;2023-01-19T07:13:25;99331.06;;;21.13;38.02
73692;BME280;61996;49.910;35.562;2023-01-19T07:16:30;99341.09;;;21.11;38.14
73692;BME280;61996;49.910;35.562;2023-01-19T07:19:33;99347.59;;;21.08;38.14
73692;BME280;61996;49.910;35.562;2023-01-19T07:22:36;99349.44;;;21.08;38.15
73692;BME280;61996;49.910;35.562;2023-01-19T07:25:39;99354.25;;;21.04;38.09
73692;BME280;61996;49.910;35.562;2023-01-19T07:28:42;99350.91;;;21.02;38.12
73692;BME280;61996;49.910;35.562;2023-01-19T07:31:49;99370.63;;;21.01;38.28
73692;BME280;61996;49.910;35.562;2023-01-19T07:34:54;99376.97;;;21.00;38.18
73692;BME280;61996;49.910;35.562;2023-01-19T07:37:57;99387.78;;;20.99;38.08
73692;BME280;61996;49.910;35.562;2023-01-19T07:41:00;99383.63;;;20.96;38.23
73692;BME280;61996;49.910;35.562;2023-01-19T07:44:03;99378.72;;;20.92;38.42
73692;BME280;61996;49.910;35.562;2023-01-19T07:47:07;99386.63;;;20.93;38.33
73692;BME280;61996;49.910;35.562;2023-01-19T07:50:13;99381.56;;;20.90;38.31
73692;BME280;61996;49.910;35.562;2023-01-19T07:53:16;99382.91;;;20.86;38.34
73692;BME280;61996;49.910;35.562;2023-01-19T07:56:19;99386.72;;;20.84;38.30
73692;BME280;61996;49.910;35.562;2023-01-19T07:59:22;99385.38;;;20.79;38.62
73692;BME280;61996;49.910;35.562;2023-01-19T08:02:27;99390.16;;;20.76;38.58
73692;BME280;61996;49.910;35.562;2023-01-19T08:05:30;99396.34;;;20.76;38.46
73692;BME280;61996;49.910;35.562;2023-01-19T08:08:33;99394.69;;;20.75;38.46
73692;BME280;61996;49.910;35.562;2023-01-19T08:11:36;99391.34;;;20.73;38.47
73692;BME280;61996;49.910;35.562;2023-01-19T08:14:39;99387.97;;;20.71;38.61
73692;BME280;61996;49.910;35.562;2023-01-19T08:17:56;99395.47;;;20.68;38.61
73692;BME280;61996;49.910;35.562;2023-01-19T08:20:59;99392.56;;;20.61;38.64
73692;BME280;61996;49.910;35.562;2023-01-19T08:24:02;99389.00;;;20.52;38.78
73692;BME280;61996;49.910;35.562;2023-01-19T08:27:06;99389.75;;;20.63;38.79
73692;BME280;61996;49.910;35.562;2023-01-19T08:30:10;99387.53;;;20.58;39.01
73692;BME280;61996;49.910;35.562;2023-01-19T08:33:14;99391.38;;;20.56;38.84
73692;BME280;61996;49.910;35.562;2023-01-19T08:36:17;99393.53;;;20.52;39.29
73692;BME280;61996;49.910;35.562;2023-01-19T08:39:20;99390.69;;;20.53;38.89
73692;BME280;61996;49.910;35.562;2023-01-19T08:42:24;99390.84;;;20.52;38.88
73692;BME280;61996;49.910;35.562;2023-01-19T08:45:27;99389.31;;;20.49;38.80
73692;BME280;61996;49.910;35.562;2023-01-19T08:48:32;99374.28;;;20.48;38.88
73692;BME280;61996;49.910;35.562;2023-01-19T08:51:35;99385.81;;;20.49;38.84
73692;BME280;61996;49.910;35.562;2023-01-19T08:54:38;99376.78;;;20.50;38.77
73692;BME280;61996;49.910;35.562;2023-01-19T08:57:44;99375.28;;;20.47;38.58
73692;BME280;61996;49.910;35.562;2023-01-19T09:00:46;99371.09;;;20.45;38.62
73692;BME280;61996;49.910;35.562;2023-01-19T09:03:54;99370.34;;;20.43;38.68
73692;BME280;61996;49.910;35.562;2023-01-19T09:06:57;99372.19;;;20.42;38.73
73692;BME280;61996;49.910;35.562;2023-01-19T09:09:59;99382.88;;;20.42;38.71
73692;BME280;61996;49.910;35.562;2023-01-19T09:13:03;99386.38;;;20.43;38.49
73692;BME280;61996;49.910;35.562;2023-01-19T09:16:06;99383.03;;;20.41;38.34
73692;BME280;61996;49.910;35.562;2023-01-19T09:19:11;99382.38;;;20.39;38.51
73692;BME280;61996;49.910;35.562;2023-01-19T09:22:14;99388.84;;;20.36;38.59
73692;BME280;61996;49.910;35.562;2023-01-19T09:25:17;99388.16;;;20.34;38.66
73692;BME280;61996;49.910;35.562;2023-01-19T09:28:20;99380.16;;;20.34;38.47
73692;BME280;61996;49.910;35.562;2023-01-19T09:31:23;99374.66;;;20.36;38.40
73692;BME280;61996;49.910;35.562;2023-01-19T09:34:27;99375.44;;;20.46;38.40
73692;BME280;61996;49.910;35.562;2023-01-19T09:37:31;99380.28;;;20.50;38.15
73692;BME280;61996;49.910;35.562;2023-01-19T09:40:34;99377.00;;;20.57;38.00
73692;BME280;61996;49.910;35.562;2023-01-19T09:43:38;99382.63;;;20.71;37.79
73692;BME280;61996;49.910;35.562;2023-01-19T09:46:42;99369.78;;;20.75;38.07
73692;BME280;61996;49.910;35.562;2023-01-19T09:49:48;99377.84;;;20.83;38.14
73692;BME280;61996;49.910;35.562;2023-01-19T09:52:54;99380.38;;;20.85;38.23
73692;BME280;61996;49.910;35.562;2023-01-19T09:56:01;99372.56;;;20.91;37.97
73692;BME280;61996;49.910;35.562;2023-01-19T09:59:12;99382.63;;;20.97;37.93
73692;BME280;61996;49.910;35.562;2023-01-19T10:02:21;99379.09;;;20.97;38.22
73692;BME280;61996;49.910;35.562;2023-01-19T10:05:30;99371.50;;;21.10;37.66
73692;BME280;61996;49.910;35.562;2023-01-19T10:08:36;99382.84;;;21.12;37.57
73692;BME280;61996;49.910;35.562;2023-01-19T10:11:43;99387.94;;;21.23;37.52
73692;BME280;61996;49.910;35.562;2023-01-19T10:14:55;99376.50;;;21.13;37.47
73692;BME280;61996;49.910;35.562;2023-01-19T10:18:03;99375.88;;;21.19;37.86
73692;BME280;61996;49.910;35.562;2023-01-19T10:29:25;99371.16;;;21.13;37.54
73692;BME280;61996;49.910;35.562;2023-01-19T10:32:30;99371.81;;;21.07;37.58
73692;BME280;61996;49.910;35.562;2023-01-19T10:35:36;99374.34;;;21.08;37.94
73692;BME280;61996;49.910;35.562;2023-01-19T10:38:39;99364.78;;;21.06;37.82
73692;BME280;61996;49.910;35.562;2023-01-19T10:41:42;99361.81;;;21.09;37.80
73692;BME280;61996;49.910;35.562;2023-01-19T10:44:47;99356.97;;;21.21;37.50
73692;BME280;61996;49.910;35.562;2023-01-19T10:47:51;99362.53;;;21.27;37.12
73692;BME280;61996;49.910;35.562;2023-01-19T10:51:00;99371.56;;;21.26;37.53
73692;BME280;61996;49.910;35.562;2023-01-19T10:54:03;99359.19;;;21.25;37.80
73692;BME280;61996;49.910;35.562;2023-01-19T10:57:07;99358.53;;;21.23;37.58
73692;BME280;61996;49.910;35.562;2023-01-19T11:00:27;99364.25;;;21.28;37.33
73692;BME280;61996;49.910;35.562;2023-01-19T11:03:30;99355.50;;;21.26;37.83
73692;BME280;61996;49.910;35.562;2023-01-19T11:06:33;99357.19;;;21.27;37.67
73692;BME280;61996;49.910;35.562;2023-01-19T11:09:36;99359.59;;;21.30;37.70
73692;BME280;61996;49.910;35.562;2023-01-19T11:12:39;99346.72;;;21.34;37.69
73692;BME280;61996;49.910;35.562;2023-01-19T11:15:45;99354.72;;;21.34;37.66
73692;BME280;61996;49.910;35.562;2023-01-19T11:18:50;99351.44;;;21.48;37.36
73692;BME280;61996;49.910;35.562;2023-01-19T11:22:06;99358.31;;;21.43;37.49
73692;BME280;61996;49.910;35.562;2023-01-19T11:25:18;99360.78;;;21.36;37.71
73692;BME280;61996;49.910;35.562;2023-01-19T11:28:24;99362.13;;;21.40;37.61
73692;BME280;61996;49.910;35.562;2023-01-19T11:31:31;99360.69;;;21.62;37.31
73692;BME280;61996;49.910;35.562;2023-01-19T11:34:35;99358.13;;;21.44;37.67
73692;BME280;61996;49.910;35.562;2023-01-19T11:37:39;99358.59;;;21.40;37.76
73692;BME280;61996;49.910;35.562;2023-01-19T11:40:45;99366.78;;;21.38;37.67
73692;BME280;61996;49.910;35.562;2023-01-19T11:43:52;99363.94;;;21.31;37.86
73692;BME280;61996;49.910;35.562;2023-01-19T11:46:58;99358.19;;;21.26;37.97
73692;BME280;61996;49.910;35.562;2023-01-19T11:50:03;99364.53;;;21.25;37.97
73692;BME280;61996;49.910;35.562;2023-01-19T11:53:10;99358.19;;;21.26;37.88
73692;BME280;61996;49.910;35.562;2023-01-19T11:56:16;99360.19;;;21.24;37.70
73692;BME280;61996;49.910;35.562;2023-01-19T11:59:23;99357.84;;;21.21;37.85
73692;BME280;61996;49.910;35.562;2023-01-19T12:02:28;99356.16;;;21.20;37.76
73692;BME280;61996;49.910;35.562;2023-01-19T12:05:33;99347.78;;;21.15;37.85
73692;BME280;61996;49.910;35.562;2023-01-19T12:08:38;99348.59;;;21.07;37.89
73692;BME280;61996;49.910;35.562;2023-01-19T12:11:42;99354.09;;;21.06;37.99
73692;BME280;61996;49.910;35.562;2023-01-19T12:14:46;99360.44;;;21.05;38.05
73692;BME280;61996;49.910;35.562;2023-01-19T12:17:54;99353.03;;;20.99;37.99
73692;BME280;61996;49.910;35.562;2023-01-19T12:20:59;99354.88;;;20.98;38.06
73692;BME280;61996;49.910;35.562;2023-01-19T12:24:06;99353.53;;;20.94;38.03
73692;BME280;61996;49.910;35.562;2023-01-19T12:27:14;99360.72;;;20.94;37.99
73692;BME280;61996;49.910;35.562;2023-01-19T12:30:20;99375.06;;;20.93;38.06
73692;BME280;61996;49.910;35.562;2023-01-19T12:33:34;99374.56;;;20.89;38.08
73692;BME280;61996;49.910;35.562;2023-01-19T12:36:38;99370.88;;;20.90;38.10
73692;BME280;61996;49.910;35.562;2023-01-19T12:39:46;99376.69;;;20.86;38.11
73692;BME280;61996;49.910;35.562;2023-01-19T12:42:51;99371.63;;;20.74;38.25
73692;BME280;61996;49.910;35.562;2023-01-19T12:45:59;99371.63;;;20.74;38.66
73692;BME280;61996;49.910;35.562;2023-01-19T12:49:04;99376.13;;;20.74;38.95
73692;BME280;61996;49.910;35.562;2023-01-19T12:52:19;99370.78;;;20.74;38.92
73692;BME280;61996;49.910;35.562;2023-01-19T12:55:24;99376.13;;;20.74;38.58
73692;BME280;61996;49.910;35.562;2023-01-19T12:58:28;99373.63;;;20.72;38.83
73692;BME280;61996;49.910;35.562;2023-01-19T13:01:32;99372.94;;;20.70;38.90
73692;BME280;61996;49.910;35.562;2023-01-19T13:04:36;99371.63;;;20.74;38.78
73692;BME280;61996;49.910;35.562;2023-01-19T13:17:44;99367.59;;;20.70;39.02
73692;BME280;61996;49.910;35.562;2023-01-19T13:20:51;99363.63;;;20.74;38.93
73692;BME280;61996;49.910;35.562;2023-01-19T13:23:56;99367.34;;;20.82;38.71
73692;BME280;61996;49.910;35.562;2023-01-19T13:26:59;99363.88;;;20.89;38.21
73692;BME280;61996;49.910;35.562;2023-01-19T13:30:08;99364.75;;;20.98;38.19
73692;BME280;61996;49.910;35.562;2023-01-19T13:33:13;99374.97;;;21.02;38.13
73692;BME280;61996;49.910;35.562;2023-01-19T13:36:26;99370.44;;;21.03;38.39
73692;BME280;61996;49.910;35.562;2023-01-19T13:39:31;99372.31;;;21.11;38.16
73692;BME280;61996;49.910;35.562;2023-01-19T13:42:36;99375.81;;;21.29;37.34
73692;BME280;61996;49.910;35.562;2023-01-19T13:45:40;99376.38;;;21.49;37.65
73692;BME280;61996;49.910;35.562;2023-01-19T13:48:50;99375.47;;;21.32;37.61
73692;BME280;61996;49.910;35.562;2023-01-19T13:52:09;99379.69;;;21.43;37.53
73692;BME280;61996;49.910;35.562;2023-01-19T13:55:14;99388.88;;;21.40;37.47
73692;BME280;61996;49.910;35.562;2023-01-19T13:58:19;99379.00;;;21.41;37.68
73692;BME280;61996;49.910;35.562;2023-01-19T14:01:22;99383.00;;;21.37;38.07
73692;BME280;61996;49.910;35.562;2023-01-19T14:04:29;99387.84;;;21.33;38.33
73692;BME280;61996;49.910;35.562;2023-01-19T14:07:34;99383.31;;;21.33;38.05
73692;BME280;61996;49.910;35.562;2023-01-19T14:10:38;99378.38;;;21.55;37.43
73692;BME280;61996;49.910;35.562;2023-01-19T14:13:42;99388.69;;;21.42;37.54
73692;BME280;61996;49.910;35.562;2023-01-19T14:16:45;99382.84;;;21.38;37.53
73692;BME280;61996;49.910;35.562;2023-01-19T14:19:48;99381.22;;;21.53;37.05
73692;BME280;61996;49.910;35.562;2023-01-19T14:22:53;99388.88;;;21.40;37.11
73692;BME280;61996;49.910;35.562;2023-01-19T14:25:56;99404.50;;;21.61;37.26
73692;BME280;61996;49.910;35.562;2023-01-19T14:29:05;99397.91;;;21.47;37.05
73692;BME280;61996;49.910;35.562;2023-01-19T14:32:13;99403.28;;;21.47;37.28
73692;BME280;61996;49.910;35.562;2023-01-19T14:35:22;99396.72;;;21.42;37.36
73692;BME280;61996;49.910;35.562;2023-01-19T14:38:27;99407.47;;;21.50;37.28
73692;BME280;61996;49.910;35.562;2023-01-19T14:41:32;99403.91;;;21.41;37.48
73692;BME280;61996;49.910;35.562;2023-01-19T14:44:37;99407.78;;;21.47;36.94
73692;BME280;61996;49.910;35.562;2023-01-19T14:47:41;99406.47;;;21.51;36.91
73692;BME280;61996;49.910;35.562;2023-01-19T14:50:45;99410.16;;;21.50;37.41
73692;BME280;61996;49.910;35.562;2023-01-19T14:54:05;99411.00;;;21.50;37.57
73692;BME280;61996;49.910;35.562;2023-01-19T14:57:16;99413.34;;;21.61;37.58
73692;BME280;61996;49.910;35.562;2023-01-19T15:00:19;99410.88;;;21.76;36.63
73692;BME280;61996;49.910;35.562;2023-01-19T15:03:22;99410.09;;;21.84;36.84
73692;BME280;61996;49.910;35.562;2023-01-19T15:06:42;99416.59;;;21.81;37.02
73692;BME280;61996;49.910;35.562;2023-01-19T15:09:47;99420.13;;;21.82;37.28
73692;BME280;61996;49.910;35.562;2023-01-19T15:12:51;99407.06;;;21.71;37.34
73692;BME280;61996;49.910;35.562;2023-01-19T15:15:55;99397.19;;;21.71;37.42
73692;BME280;61996;49.910;35.562;2023-01-19T15:18:59;99414.91;;;21.72;37.15
73692;BME280;61996;49.910;35.562;2023-01-19T15:22:07;99408.94;;;21.86;36.85
73692;BME280;61996;49.910;35.562;2023-01-19T15:25:27;99418.31;;;21.91;37.07
73692;BME280;61996;49.910;35.562;2023-01-19T15:28:32;99423.09;;;22.37;36.75
73692;BME280;61996;49.910;35.562;2023-01-19T15:31:35;99419.28;;;21.89;37.43
73692;BME280;61996;49.910;35.562;2023-01-19T15:34:38;99425.34;;;21.92;37.57
73692;BME280;61996;49.910;35.562;2023-01-19T15:37:41;99424.16;;;21.94;37.87
73692;BME280;61996;49.910;35.562;2023-01-19T15:40:46;99433.19;;;21.85;38.04
73692;BME280;61996;49.910;35.562;2023-01-19T15:43:51;99437.00;;;21.82;38.58
73692;BME280;61996;49.910;35.562;2023-01-19T15:46:55;99426.84;;;21.86;38.38
73692;BME280;61996;49.910;35.562;2023-01-19T15:49:58;99434.03;;;21.85;38.31
73692;BME280;61996;49.910;35.562;2023-01-19T15:53:01;99429.34;;;21.87;38.52
73692;BME280;61996;49.910;35.562;2023-01-19T15:56:09;99419.16;;;21.91;38.31
73692;BME280;61996;49.910;35.562;2023-01-19T15:59:13;99427.84;;;21.93;38.27
73692;BME280;61996;49.910;35.562;2023-01-19T16:02:16;99427.38;;;21.98;37.68
73692;BME280;61996;49.910;35.562;2023-01-19T16:05:19;99436.06;;;21.92;37.79
73692;BME280;61996;49.910;35.562;2023-01-19T16:08:31;99444.56;;;21.87;38.20
73692;BME280;61996;49.910;35.562;2023-01-19T16:11:35;99436.38;;;21.88;38.25
73692;BME280;61996;49.910;35.562;2023-01-19T16:14:39;99428.34;;;21.88;38.02
73692;BME280;61996;49.910;35.562;2023-01-19T16:17:42;99429.50;;;21.78;37.79
73692;BME280;61996;49.910;35.562;2023-01-19T16:20:45;99435.84;;;21.77;38.42
73692;BME280;61996;49.910;35.562;2023-01-19T16:23:48;99426.47;;;21.73;38.20
73692;BME280;61996;49.910;35.562;2023-01-19T16:26:52;99432.28;;;21.68;38.44